Forestburg, New York
Current Conditions -  °F | °C
As of 4:35 AM on Friday 24 Oct 2014 (Local Time) from KMSV Reporting Station
Overcast Overcast  
Wind Chill: 36°   Ceiling: 1000
Heat Index: 43°   Visibility: 10mi
Dew Point: 41°   Wind: 14mph
Humidity: 93%   Direction: 310°NW
Pressure: 29.81"   Gusts: NA
Location:  41.5947°N, 74.7078°W
Report Text: KMSV 240835Z AUTO 31012KT 10SM OVC010 06/05 A2981 RMK AO1
Loading
Personal Weather Stations






























Interactive Weather Map
Tropical Storm Tracking
New forecast layout! Learn more

10-Day Weather Forecast

Advertisements
Track Severe Weather on mobile